sensor_id;sensor_type;location;lat;lon;timestamp;temperature;humidity
44477;DHT22;30180;44.788;10.366;2024-02-23T00:01:45;17.40;66.70
44477;DHT22;30180;44.788;10.366;2024-02-23T00:04:14;17.40;66.70
44477;DHT22;30180;44.788;10.366;2024-02-23T00:06:43;17.40;66.70
44477;DHT22;30180;44.788;10.366;2024-02-23T00:09:11;17.40;66.70
44477;DHT22;30180;44.788;10.366;2024-02-23T00:11:40;17.40;66.70
44477;DHT22;30180;44.788;10.366;2024-02-23T00:14:14;17.40;66.80
44477;DHT22;30180;44.788;10.366;2024-02-23T00:16:43;17.40;66.80
44477;DHT22;30180;44.788;10.366;2024-02-23T00:19:13;17.40;66.80
44477;DHT22;30180;44.788;10.366;2024-02-23T00:21:42;17.30;66.70
44477;DHT22;30180;44.788;10.366;2024-02-23T00:24:14;17.30;66.70
44477;DHT22;30180;44.788;10.366;2024-02-23T00:26:43;17.30;66.80
44477;DHT22;30180;44.788;10.366;2024-02-23T00:29:13;17.30;66.70
44477;DHT22;30180;44.788;10.366;2024-02-23T00:31:42;17.30;67.40
44477;DHT22;30180;44.788;10.366;2024-02-23T00:34:12;17.30;66.80
44477;DHT22;30180;44.788;10.366;2024-02-23T00:36:42;17.30;66.80
44477;DHT22;30180;44.788;10.366;2024-02-23T00:39:12;17.30;66.80
44477;DHT22;30180;44.788;10.366;2024-02-23T00:41:40;17.30;66.80
44477;DHT22;30180;44.788;10.366;2024-02-23T00:44:08;17.30;66.80
44477;DHT22;30180;44.788;10.366;2024-02-23T00:46:38;17.30;66.80
44477;DHT22;30180;44.788;10.366;2024-02-23T00:49:07;17.30;66.80
44477;DHT22;30180;44.788;10.366;2024-02-23T00:51:35;17.30;66.80
44477;DHT22;30180;44.788;10.366;2024-02-23T00:54:04;17.30;66.80
44477;DHT22;30180;44.788;10.366;2024-02-23T00:56:33;17.20;66.80
44477;DHT22;30180;44.788;10.366;2024-02-23T00:59:16;17.30;66.80
44477;DHT22;30180;44.788;10.366;2024-02-23T01:01:47;17.30;66.80
44477;DHT22;30180;44.788;10.366;2024-02-23T01:04:15;17.30;66.80
44477;DHT22;30180;44.788;10.366;2024-02-23T01:06:43;17.30;66.90
44477;DHT22;30180;44.788;10.366;2024-02-23T01:09:12;17.30;66.80
44477;DHT22;30180;44.788;10.366;2024-02-23T01:11:43;17.30;66.90
44477;DHT22;30180;44.788;10.366;2024-02-23T01:14:11;17.30;66.90
44477;DHT22;30180;44.788;10.366;2024-02-23T01:16:40;17.30;66.90
44477;DHT22;30180;44.788;10.366;2024-02-23T01:19:10;17.30;66.90
44477;DHT22;30180;44.788;10.366;2024-02-23T01:21:38;17.20;66.80
44477;DHT22;30180;44.788;10.366;2024-02-23T01:24:07;17.20;66.90
44477;DHT22;30180;44.788;10.366;2024-02-23T01:26:35;17.20;66.90
44477;DHT22;30180;44.788;10.366;2024-02-23T01:29:07;17.20;66.90
44477;DHT22;30180;44.788;10.366;2024-02-23T01:31:35;17.20;66.90
44477;DHT22;30180;44.788;10.366;2024-02-23T01:34:04;17.20;66.90
44477;DHT22;30180;44.788;10.366;2024-02-23T01:36:34;17.20;66.90
44477;DHT22;30180;44.788;10.366;2024-02-23T01:39:03;17.20;66.90
44477;DHT22;30180;44.788;10.366;2024-02-23T01:41:32;17.20;66.90
44477;DHT22;30180;44.788;10.366;2024-02-23T01:44:00;17.20;66.90
44477;DHT22;30180;44.788;10.366;2024-02-23T01:46:29;17.20;66.90
44477;DHT22;30180;44.788;10.366;2024-02-23T01:48:58;17.20;66.90
44477;DHT22;30180;44.788;10.366;2024-02-23T01:51:26;17.20;66.90
44477;DHT22;30180;44.788;10.366;2024-02-23T01:53:56;17.20;66.90
44477;DHT22;30180;44.788;10.366;2024-02-23T01:56:25;17.20;67.00
44477;DHT22;30180;44.788;10.366;2024-02-23T01:58:55;17.20;67.00
44477;DHT22;30180;44.788;10.366;2024-02-23T02:01:24;17.20;67.00
44477;DHT22;30180;44.788;10.366;2024-02-23T02:03:53;17.20;67.00
44477;DHT22;30180;44.788;10.366;2024-02-23T02:06:23;17.20;67.00
44477;DHT22;30180;44.788;10.366;2024-02-23T02:08:53;17.20;67.00
44477;DHT22;30180;44.788;10.366;2024-02-23T02:11:23;17.20;67.00
44477;DHT22;30180;44.788;10.366;2024-02-23T02:13:51;17.20;67.00
44477;DHT22;30180;44.788;10.366;2024-02-23T02:16:20;17.20;67.00
44477;DHT22;30180;44.788;10.366;2024-02-23T02:18:49;17.20;67.00
44477;DHT22;30180;44.788;10.366;2024-02-23T02:21:17;17.20;67.00
44477;DHT22;30180;44.788;10.366;2024-02-23T02:23:50;17.20;67.00
44477;DHT22;30180;44.788;10.366;2024-02-23T02:26:19;17.20;67.00
44477;DHT22;30180;44.788;10.366;2024-02-23T02:28:48;17.20;67.00
44477;DHT22;30180;44.788;10.366;2024-02-23T02:31:17;17.20;67.00
44477;DHT22;30180;44.788;10.366;2024-02-23T02:33:46;17.10;67.00
44477;DHT22;30180;44.788;10.366;2024-02-23T02:36:14;17.20;67.10
44477;DHT22;30180;44.788;10.366;2024-02-23T02:38:42;17.20;67.10
44477;DHT22;30180;44.788;10.366;2024-02-23T02:41:11;17.20;67.10
44477;DHT22;30180;44.788;10.366;2024-02-23T02:43:39;17.20;67.10
44477;DHT22;30180;44.788;10.366;2024-02-23T02:46:09;17.10;67.00
44477;DHT22;30180;44.788;10.366;2024-02-23T02:48:38;17.10;67.00
44477;DHT22;30180;44.788;10.366;2024-02-23T02:51:06;17.10;67.00
44477;DHT22;30180;44.788;10.366;2024-02-23T02:53:35;17.10;67.00
44477;DHT22;30180;44.788;10.366;2024-02-23T02:56:05;17.10;67.10
44477;DHT22;30180;44.788;10.366;2024-02-23T02:58:34;17.10;67.10
44477;DHT22;30180;44.788;10.366;2024-02-23T03:01:03;17.10;67.10
44477;DHT22;30180;44.788;10.366;2024-02-23T03:03:33;17.10;67.10
44477;DHT22;30180;44.788;10.366;2024-02-23T03:06:02;17.10;67.10
44477;DHT22;30180;44.788;10.366;2024-02-23T03:08:30;17.10;67.10
44477;DHT22;30180;44.788;10.366;2024-02-23T03:10:59;17.10;67.10
44477;DHT22;30180;44.788;10.366;2024-02-23T03:13:27;17.10;67.10
44477;DHT22;30180;44.788;10.366;2024-02-23T03:15:55;17.10;67.10
44477;DHT22;30180;44.788;10.366;2024-02-23T03:18:24;17.10;67.10
44477;DHT22;30180;44.788;10.366;2024-02-23T03:20:56;17.10;67.10
44477;DHT22;30180;44.788;10.366;2024-02-23T03:23:24;17.10;67.10
44477;DHT22;30180;44.788;10.366;2024-02-23T03:25:52;17.10;67.10
44477;DHT22;30180;44.788;10.366;2024-02-23T03:28:21;17.10;67.10
44477;DHT22;30180;44.788;10.366;2024-02-23T03:30:50;17.10;67.10
44477;DHT22;30180;44.788;10.366;2024-02-23T03:33:18;17.10;67.10
44477;DHT22;30180;44.788;10.366;2024-02-23T03:35:47;17.10;67.10
44477;DHT22;30180;44.788;10.366;2024-02-23T03:38:16;17.10;67.10
44477;DHT22;30180;44.788;10.366;2024-02-23T03:40:45;17.10;67.10
44477;DHT22;30180;44.788;10.366;2024-02-23T03:43:13;17.10;67.10
44477;DHT22;30180;44.788;10.366;2024-02-23T03:45:41;17.10;67.20
44477;DHT22;30180;44.788;10.366;2024-02-23T03:48:10;17.10;67.20
44477;DHT22;30180;44.788;10.366;2024-02-23T03:50:38;17.10;67.10
44477;DHT22;30180;44.788;10.366;2024-02-23T03:53:07;17.10;67.10
44477;DHT22;30180;44.788;10.366;2024-02-23T03:55:37;17.10;67.20
44477;DHT22;30180;44.788;10.366;2024-02-23T03:58:05;17.10;67.20
44477;DHT22;30180;44.788;10.366;2024-02-23T04:00:34;17.10;67.80
44477;DHT22;30180;44.788;10.366;2024-02-23T04:03:02;17.00;67.10
44477;DHT22;30180;44.788;10.366;2024-02-23T04:05:30;17.10;67.20
44477;DHT22;30180;44.788;10.366;2024-02-23T04:07:59;17.10;67.20
44477;DHT22;30180;44.788;10.366;2024-02-23T04:10:27;17.00;67.10
44477;DHT22;30180;44.788;10.366;2024-02-23T04:12:58;17.00;67.80
44477;DHT22;30180;44.788;10.366;2024-02-23T04:15:26;17.00;67.10
44477;DHT22;30180;44.788;10.366;2024-02-23T04:17:55;17.00;67.20
44477;DHT22;30180;44.788;10.366;2024-02-23T04:20:23;17.00;67.20
44477;DHT22;30180;44.788;10.366;2024-02-23T04:22:52;17.10;67.20
44477;DHT22;30180;44.788;10.366;2024-02-23T04:25:20;17.00;67.20
44477;DHT22;30180;44.788;10.366;2024-02-23T04:27:49;17.00;67.20
44477;DHT22;30180;44.788;10.366;2024-02-23T04:30:19;17.10;67.30
44477;DHT22;30180;44.788;10.366;2024-02-23T04:32:47;17.10;67.30
44477;DHT22;30180;44.788;10.366;2024-02-23T04:35:15;17.10;67.30
44477;DHT22;30180;44.788;10.366;2024-02-23T04:37:44;17.10;67.30
44477;DHT22;30180;44.788;10.366;2024-02-23T04:40:13;17.10;67.30
44477;DHT22;30180;44.788;10.366;2024-02-23T04:42:43;17.10;67.40
44477;DHT22;30180;44.788;10.366;2024-02-23T04:45:12;17.10;67.40
44477;DHT22;30180;44.788;10.366;2024-02-23T04:47:42;17.10;67.40
44477;DHT22;30180;44.788;10.366;2024-02-23T04:50:11;17.10;67.40
44477;DHT22;30180;44.788;10.366;2024-02-23T04:52:40;17.10;67.40
44477;DHT22;30180;44.788;10.366;2024-02-23T04:55:09;17.10;67.40
44477;DHT22;30180;44.788;10.366;2024-02-23T04:57:37;17.10;67.50
44477;DHT22;30180;44.788;10.366;2024-02-23T05:00:07;17.20;67.50
44477;DHT22;30180;44.788;10.366;2024-02-23T05:02:36;17.20;67.50
44477;DHT22;30180;44.788;10.366;2024-02-23T05:05:07;17.20;67.50
44477;DHT22;30180;44.788;10.366;2024-02-23T05:07:35;17.20;67.50
44477;DHT22;30180;44.788;10.366;2024-02-23T05:10:04;17.20;67.50
44477;DHT22;30180;44.788;10.366;2024-02-23T05:12:33;17.20;67.50
44477;DHT22;30180;44.788;10.366;2024-02-23T05:15:01;17.20;67.50
44477;DHT22;30180;44.788;10.366;2024-02-23T05:17:30;17.20;67.60
44477;DHT22;30180;44.788;10.366;2024-02-23T05:19:58;17.20;67.60
44477;DHT22;30180;44.788;10.366;2024-02-23T05:22:29;17.30;67.60
44477;DHT22;30180;44.788;10.366;2024-02-23T05:24:57;17.30;67.60
44477;DHT22;30180;44.788;10.366;2024-02-23T05:27:26;17.20;67.60
44477;DHT22;30180;44.788;10.366;2024-02-23T05:29:55;17.30;67.60
44477;DHT22;30180;44.788;10.366;2024-02-23T05:32:24;17.30;67.60
44477;DHT22;30180;44.788;10.366;2024-02-23T05:34:52;17.30;67.60
44477;DHT22;30180;44.788;10.366;2024-02-23T05:37:21;17.30;67.70
44477;DHT22;30180;44.788;10.366;2024-02-23T05:39:51;17.40;67.80
44477;DHT22;30180;44.788;10.366;2024-02-23T05:42:20;17.40;67.70
44477;DHT22;30180;44.788;10.366;2024-02-23T05:44:49;17.30;67.70
44477;DHT22;30180;44.788;10.366;2024-02-23T05:47:17;17.40;67.70
44477;DHT22;30180;44.788;10.366;2024-02-23T05:49:48;17.40;67.80
44477;DHT22;30180;44.788;10.366;2024-02-23T05:52:16;17.40;67.80
44477;DHT22;30180;44.788;10.366;2024-02-23T05:54:45;17.40;67.80
44477;DHT22;30180;44.788;10.366;2024-02-23T05:57:19;17.40;67.80
44477;DHT22;30180;44.788;10.366;2024-02-23T05:59:50;17.40;67.80
44477;DHT22;30180;44.788;10.366;2024-02-23T06:02:19;17.50;67.90
44477;DHT22;30180;44.788;10.366;2024-02-23T06:04:47;17.50;67.90
44477;DHT22;30180;44.788;10.366;2024-02-23T06:07:16;17.50;67.90
44477;DHT22;30180;44.788;10.366;2024-02-23T06:09:45;17.50;67.90
44477;DHT22;30180;44.788;10.366;2024-02-23T06:12:13;17.50;67.90
44477;DHT22;30180;44.788;10.366;2024-02-23T06:14:43;17.50;67.90
44477;DHT22;30180;44.788;10.366;2024-02-23T06:17:11;17.50;67.90
44477;DHT22;30180;44.788;10.366;2024-02-23T06:19:40;17.60;68.00
44477;DHT22;30180;44.788;10.366;2024-02-23T06:22:09;17.60;68.60
44477;DHT22;30180;44.788;10.366;2024-02-23T06:24:39;17.60;68.00
44477;DHT22;30180;44.788;10.366;2024-02-23T06:27:07;17.60;67.90
44477;DHT22;30180;44.788;10.366;2024-02-23T06:29:35;17.60;68.00
44477;DHT22;30180;44.788;10.366;2024-02-23T06:32:06;17.60;68.00
44477;DHT22;30180;44.788;10.366;2024-02-23T06:34:35;17.60;68.00
44477;DHT22;30180;44.788;10.366;2024-02-23T06:37:04;17.70;68.00
44477;DHT22;30180;44.788;10.366;2024-02-23T06:39:32;17.70;68.00
44477;DHT22;30180;44.788;10.366;2024-02-23T06:42:01;17.70;68.00
44477;DHT22;30180;44.788;10.366;2024-02-23T06:44:31;17.70;68.00
44477;DHT22;30180;44.788;10.366;2024-02-23T06:47:00;17.70;68.00
44477;DHT22;30180;44.788;10.366;2024-02-23T06:49:30;17.70;68.00
44477;DHT22;30180;44.788;10.366;2024-02-23T06:51:58;17.70;68.00
44477;DHT22;30180;44.788;10.366;2024-02-23T06:54:27;17.70;68.00
44477;DHT22;30180;44.788;10.366;2024-02-23T06:56:55;17.70;67.90
44477;DHT22;30180;44.788;10.366;2024-02-23T06:59:24;17.70;67.90
44477;DHT22;30180;44.788;10.366;2024-02-23T07:01:53;17.80;68.00
44477;DHT22;30180;44.788;10.366;2024-02-23T07:04:22;17.80;68.00
44477;DHT22;30180;44.788;10.366;2024-02-23T07:06:51;17.80;68.00
44477;DHT22;30180;44.788;10.366;2024-02-23T07:09:20;17.70;67.90
44477;DHT22;30180;44.788;10.366;2024-02-23T07:11:48;17.80;68.00
44477;DHT22;30180;44.788;10.366;2024-02-23T07:14:17;17.80;68.00
44477;DHT22;30180;44.788;10.366;2024-02-23T07:16:47;17.80;68.00
44477;DHT22;30180;44.788;10.366;2024-02-23T07:19:16;17.80;67.90
44477;DHT22;30180;44.788;10.366;2024-02-23T07:21:44;17.80;67.90
44477;DHT22;30180;44.788;10.366;2024-02-23T07:24:14;17.80;67.90
44477;DHT22;30180;44.788;10.366;2024-02-23T07:26:44;17.80;67.90
44477;DHT22;30180;44.788;10.366;2024-02-23T07:29:12;17.80;67.90
44477;DHT22;30180;44.788;10.366;2024-02-23T07:31:44;17.80;68.60
44477;DHT22;30180;44.788;10.366;2024-02-23T07:34:14;17.80;68.10
44477;DHT22;30180;44.788;10.366;2024-02-23T07:36:43;17.80;68.10
44477;DHT22;30180;44.788;10.366;2024-02-23T07:39:14;17.80;68.20
44477;DHT22;30180;44.788;10.366;2024-02-23T07:41:43;17.90;68.30
44477;DHT22;30180;44.788;10.366;2024-02-23T07:47:06;17.90;68.40
44477;DHT22;30180;44.788;10.366;2024-02-23T07:49:35;18.00;68.40
44477;DHT22;30180;44.788;10.366;2024-02-23T07:52:04;18.10;68.40
44477;DHT22;30180;44.788;10.366;2024-02-23T07:54:33;18.10;68.40
44477;DHT22;30180;44.788;10.366;2024-02-23T07:57:02;18.10;68.30
44477;DHT22;30180;44.788;10.366;2024-02-23T07:59:31;18.20;68.40
44477;DHT22;30180;44.788;10.366;2024-02-23T08:02:00;18.20;68.40
44477;DHT22;30180;44.788;10.366;2024-02-23T08:04:28;18.20;68.40
44477;DHT22;30180;44.788;10.366;2024-02-23T08:06:57;18.30;68.40
44477;DHT22;30180;44.788;10.366;2024-02-23T08:09:25;18.30;68.40
44477;DHT22;30180;44.788;10.366;2024-02-23T08:11:55;18.30;68.40
44477;DHT22;30180;44.788;10.366;2024-02-23T08:14:23;18.30;68.40
44477;DHT22;30180;44.788;10.366;2024-02-23T08:16:52;18.30;68.40
44477;DHT22;30180;44.788;10.366;2024-02-23T08:19:20;18.40;68.50
44477;DHT22;30180;44.788;10.366;2024-02-23T08:21:49;18.40;68.50
44477;DHT22;30180;44.788;10.366;2024-02-23T08:24:17;18.40;68.50
44477;DHT22;30180;44.788;10.366;2024-02-23T08:26:46;18.40;68.50
44477;DHT22;30180;44.788;10.366;2024-02-23T08:29:16;18.50;68.50
44477;DHT22;30180;44.788;10.366;2024-02-23T08:31:45;18.40;68.40
44477;DHT22;30180;44.788;10.366;2024-02-23T08:34:13;18.50;68.50
44477;DHT22;30180;44.788;10.366;2024-02-23T08:36:42;18.50;68.50
44477;DHT22;30180;44.788;10.366;2024-02-23T08:39:10;18.50;68.50
44477;DHT22;30180;44.788;10.366;2024-02-23T08:41:38;18.50;68.50
44477;DHT22;30180;44.788;10.366;2024-02-23T08:44:07;18.50;68.50
44477;DHT22;30180;44.788;10.366;2024-02-23T08:46:36;18.50;68.50
44477;DHT22;30180;44.788;10.366;2024-02-23T08:49:06;18.50;68.50
44477;DHT22;30180;44.788;10.366;2024-02-23T08:51:34;18.50;68.50
44477;DHT22;30180;44.788;10.366;2024-02-23T08:54:03;18.50;68.50
44477;DHT22;30180;44.788;10.366;2024-02-23T08:56:36;18.50;68.50
44477;DHT22;30180;44.788;10.366;2024-02-23T08:59:05;18.60;68.60
44477;DHT22;30180;44.788;10.366;2024-02-23T09:01:33;18.50;68.50
44477;DHT22;30180;44.788;10.366;2024-02-23T09:04:03;18.60;68.50
44477;DHT22;30180;44.788;10.366;2024-02-23T09:06:32;18.50;68.40
44477;DHT22;30180;44.788;10.366;2024-02-23T09:09:05;18.60;68.40
44477;DHT22;30180;44.788;10.366;2024-02-23T09:11:34;18.60;68.40
44477;DHT22;30180;44.788;10.366;2024-02-23T09:14:03;18.60;68.50
44477;DHT22;30180;44.788;10.366;2024-02-23T09:16:31;18.50;68.40
44477;DHT22;30180;44.788;10.366;2024-02-23T09:19:00;18.50;68.40
44477;DHT22;30180;44.788;10.366;2024-02-23T09:21:30;18.50;68.50
44477;DHT22;30180;44.788;10.366;2024-02-23T09:23:58;18.60;68.50
44477;DHT22;30180;44.788;10.366;2024-02-23T09:26:27;18.60;68.50
44477;DHT22;30180;44.788;10.366;2024-02-23T09:28:55;18.60;68.50
44477;DHT22;30180;44.788;10.366;2024-02-23T09:31:23;18.60;68.50
44477;DHT22;30180;44.788;10.366;2024-02-23T09:33:53;18.60;68.60
44477;DHT22;30180;44.788;10.366;2024-02-23T09:36:22;18.60;68.60
44477;DHT22;30180;44.788;10.366;2024-02-23T09:38:52;18.60;68.60
44477;DHT22;30180;44.788;10.366;2024-02-23T09:41:21;18.60;68.60
44477;DHT22;30180;44.788;10.366;2024-02-23T09:43:50;18.60;68.60
44477;DHT22;30180;44.788;10.366;2024-02-23T09:46:20;18.60;68.50
44477;DHT22;30180;44.788;10.366;2024-02-23T09:48:49;18.60;68.50
44477;DHT22;30180;44.788;10.366;2024-02-23T09:51:18;18.60;68.50
44477;DHT22;30180;44.788;10.366;2024-02-23T09:53:49;18.60;68.50
44477;DHT22;30180;44.788;10.366;2024-02-23T09:56:21;18.60;68.50
44477;DHT22;30180;44.788;10.366;2024-02-23T09:58:54;18.60;68.60
44477;DHT22;30180;44.788;10.366;2024-02-23T10:01:27;18.60;68.50
44477;DHT22;30180;44.788;10.366;2024-02-23T10:03:58;18.60;68.50
44477;DHT22;30180;44.788;10.366;2024-02-23T10:06:26;18.60;68.50
44477;DHT22;30180;44.788;10.366;2024-02-23T10:08:55;18.60;68.50
44477;DHT22;30180;44.788;10.366;2024-02-23T10:11:25;18.60;68.60
44477;DHT22;30180;44.788;10.366;2024-02-23T10:13:54;18.60;68.60
44477;DHT22;30180;44.788;10.366;2024-02-23T10:16:22;18.60;68.60
44477;DHT22;30180;44.788;10.366;2024-02-23T10:18:51;18.60;68.60
44477;DHT22;30180;44.788;10.366;2024-02-23T10:21:19;18.60;68.60
44477;DHT22;30180;44.788;10.366;2024-02-23T10:23:49;18.60;68.60
44477;DHT22;30180;44.788;10.366;2024-02-23T10:26:19;18.60;68.70
44477;DHT22;30180;44.788;10.366;2024-02-23T10:28:51;18.70;68.70
44477;DHT22;30180;44.788;10.366;2024-02-23T10:31:20;18.60;68.70
44477;DHT22;30180;44.788;10.366;2024-02-23T10:33:50;18.70;68.80
44477;DHT22;30180;44.788;10.366;2024-02-23T10:36:20;18.70;68.80
44477;DHT22;30180;44.788;10.366;2024-02-23T10:38:52;18.70;68.80
44477;DHT22;30180;44.788;10.366;2024-02-23T10:41:25;18.70;68.80
44477;DHT22;30180;44.788;10.366;2024-02-23T10:43:56;18.70;68.80
44477;DHT22;30180;44.788;10.366;2024-02-23T10:46:26;18.80;68.80
44477;DHT22;30180;44.788;10.366;2024-02-23T10:48:55;18.80;68.80
44477;DHT22;30180;44.788;10.366;2024-02-23T10:51:26;18.80;68.90
44477;DHT22;30180;44.788;10.366;2024-02-23T10:53:55;18.80;68.90
44477;DHT22;30180;44.788;10.366;2024-02-23T10:56:24;18.80;68.90
44477;DHT22;30180;44.788;10.366;2024-02-23T10:58:54;18.80;68.90
44477;DHT22;30180;44.788;10.366;2024-02-23T11:01:24;18.80;69.00
44477;DHT22;30180;44.788;10.366;2024-02-23T11:03:53;18.90;69.10
44477;DHT22;30180;44.788;10.366;2024-02-23T11:06:27;18.90;69.00
44477;DHT22;30180;44.788;10.366;2024-02-23T11:09:05;18.90;69.10
44477;DHT22;30180;44.788;10.366;2024-02-23T11:11:34;18.90;69.00
44477;DHT22;30180;44.788;10.366;2024-02-23T11:14:07;18.90;69.00
44477;DHT22;30180;44.788;10.366;2024-02-23T11:16:39;19.00;69.10
44477;DHT22;30180;44.788;10.366;2024-02-23T11:19:09;18.90;69.00
44477;DHT22;30180;44.788;10.366;2024-02-23T11:21:39;19.00;69.00
44477;DHT22;30180;44.788;10.366;2024-02-23T11:24:07;19.00;69.00
44477;DHT22;30180;44.788;10.366;2024-02-23T11:26:37;19.00;69.00
44477;DHT22;30180;44.788;10.366;2024-02-23T11:29:16;19.00;69.00
44477;DHT22;30180;44.788;10.366;2024-02-23T11:31:46;19.00;68.90
44477;DHT22;30180;44.788;10.366;2024-02-23T11:34:22;19.00;68.90
44477;DHT22;30180;44.788;10.366;2024-02-23T11:36:52;19.00;68.90
44477;DHT22;30180;44.788;10.366;2024-02-23T11:39:21;19.00;68.80
44477;DHT22;30180;44.788;10.366;2024-02-23T11:41:50;19.00;68.90
44477;DHT22;30180;44.788;10.366;2024-02-23T11:44:19;19.00;69.50
44477;DHT22;30180;44.788;10.366;2024-02-23T11:46:48;19.00;68.90
44477;DHT22;30180;44.788;10.366;2024-02-23T11:49:16;19.00;68.90
44477;DHT22;30180;44.788;10.366;2024-02-23T11:51:45;19.00;68.90
44477;DHT22;30180;44.788;10.366;2024-02-23T11:54:13;19.10;68.90
44477;DHT22;30180;44.788;10.366;2024-02-23T11:56:42;19.10;68.90
44477;DHT22;30180;44.788;10.366;2024-02-23T11:59:10;19.10;68.90
44477;DHT22;30180;44.788;10.366;2024-02-23T12:01:40;19.10;68.90
44477;DHT22;30180;44.788;10.366;2024-02-23T12:04:09;19.10;68.90
44477;DHT22;30180;44.788;10.366;2024-02-23T12:06:37;19.10;68.90
44477;DHT22;30180;44.788;10.366;2024-02-23T12:09:06;19.10;68.80
44477;DHT22;30180;44.788;10.366;2024-02-23T12:11:35;19.10;68.90
44477;DHT22;30180;44.788;10.366;2024-02-23T12:14:03;19.10;68.80
44477;DHT22;30180;44.788;10.366;2024-02-23T12:16:34;19.10;68.80
44477;DHT22;30180;44.788;10.366;2024-02-23T12:19:05;19.10;68.80
44477;DHT22;30180;44.788;10.366;2024-02-23T12:21:34;19.10;68.80
44477;DHT22;30180;44.788;10.366;2024-02-23T12:24:04;19.10;68.80
44477;DHT22;30180;44.788;10.366;2024-02-23T12:26:33;19.10;68.80
44477;DHT22;30180;44.788;10.366;2024-02-23T12:29:03;19.10;68.70
44477;DHT22;30180;44.788;10.366;2024-02-23T12:31:32;19.10;68.70
44477;DHT22;30180;44.788;10.366;2024-02-23T12:34:01;19.10;68.80
44477;DHT22;30180;44.788;10.366;2024-02-23T12:36:31;19.10;68.80
44477;DHT22;30180;44.788;10.366;2024-02-23T12:39:02;19.10;68.80
44477;DHT22;30180;44.788;10.366;2024-02-23T12:41:31;19.10;68.80
44477;DHT22;30180;44.788;10.366;2024-02-23T12:43:59;19.10;68.70
44477;DHT22;30180;44.788;10.366;2024-02-23T12:46:28;19.00;68.60
44477;DHT22;30180;44.788;10.366;2024-02-23T12:48:56;19.00;68.60
44477;DHT22;30180;44.788;10.366;2024-02-23T12:51:25;19.00;68.60
44477;DHT22;30180;44.788;10.366;2024-02-23T12:53:55;19.00;68.60
44477;DHT22;30180;44.788;10.366;2024-02-23T12:56:24;19.00;68.60
44477;DHT22;30180;44.788;10.366;2024-02-23T12:58:52;19.00;68.70
44477;DHT22;30180;44.788;10.366;2024-02-23T13:01:21;19.00;68.60
44477;DHT22;30180;44.788;10.366;2024-02-23T13:03:49;19.00;68.60
44477;DHT22;30180;44.788;10.366;2024-02-23T13:06:18;19.00;68.60
44477;DHT22;30180;44.788;10.366;2024-02-23T13:08:47;19.00;68.60
44477;DHT22;30180;44.788;10.366;2024-02-23T13:11:17;19.00;68.50
44477;DHT22;30180;44.788;10.366;2024-02-23T13:13:45;19.00;68.50
44477;DHT22;30180;44.788;10.366;2024-02-23T13:16:14;18.90;68.40
44477;DHT22;30180;44.788;10.366;2024-02-23T13:18:43;19.00;68.50
44477;DHT22;30180;44.788;10.366;2024-02-23T13:21:14;18.90;68.40
44477;DHT22;30180;44.788;10.366;2024-02-23T13:23:42;18.90;68.40
44477;DHT22;30180;44.788;10.366;2024-02-23T13:26:11;18.90;68.40
44477;DHT22;30180;44.788;10.366;2024-02-23T13:28:43;18.90;68.40
44477;DHT22;30180;44.788;10.366;2024-02-23T13:31:12;18.90;68.30
44477;DHT22;30180;44.788;10.366;2024-02-23T13:33:42;18.90;68.30
44477;DHT22;30180;44.788;10.366;2024-02-23T13:36:11;18.90;68.30
44477;DHT22;30180;44.788;10.366;2024-02-23T13:38:39;18.80;68.20
44477;DHT22;30180;44.788;10.366;2024-02-23T13:41:09;18.80;68.30
44477;DHT22;30180;44.788;10.366;2024-02-23T13:43:38;18.80;68.40
44477;DHT22;30180;44.788;10.366;2024-02-23T13:46:08;18.80;68.50
44477;DHT22;30180;44.788;10.366;2024-02-23T13:48:36;18.80;68.50
44477;DHT22;30180;44.788;10.366;2024-02-23T13:51:05;18.80;68.50
44477;DHT22;30180;44.788;10.366;2024-02-23T13:53:34;18.80;68.40
44477;DHT22;30180;44.788;10.366;2024-02-23T13:56:04;18.80;68.40
44477;DHT22;30180;44.788;10.366;2024-02-23T13:58:33;18.80;68.40
44477;DHT22;30180;44.788;10.366;2024-02-23T14:01:01;18.80;68.40
44477;DHT22;30180;44.788;10.366;2024-02-23T14:03:31;18.80;68.50
44477;DHT22;30180;44.788;10.366;2024-02-23T14:06:00;18.80;68.50
44477;DHT22;30180;44.788;10.366;2024-02-23T14:08:28;18.80;68.40
44477;DHT22;30180;44.788;10.366;2024-02-23T14:10:57;18.80;68.40
44477;DHT22;30180;44.788;10.366;2024-02-23T14:13:25;18.80;68.40
44477;DHT22;30180;44.788;10.366;2024-02-23T14:15:54;18.80;68.40
44477;DHT22;30180;44.788;10.366;2024-02-23T14:18:22;18.80;68.40
44477;DHT22;30180;44.788;10.366;2024-02-23T14:20:52;18.90;68.40
44477;DHT22;30180;44.788;10.366;2024-02-23T14:23:20;18.80;68.40
44477;DHT22;30180;44.788;10.366;2024-02-23T14:25:49;18.80;68.50
44477;DHT22;30180;44.788;10.366;2024-02-23T14:28:18;18.90;68.60
44477;DHT22;30180;44.788;10.366;2024-02-23T14:30:47;18.90;68.60
44477;DHT22;30180;44.788;10.366;2024-02-23T14:33:15;18.90;68.50
44477;DHT22;30180;44.788;10.366;2024-02-23T14:35:43;18.90;68.30
44477;DHT22;30180;44.788;10.366;2024-02-23T14:38:13;18.80;68.20
44477;DHT22;30180;44.788;10.366;2024-02-23T14:40:42;18.80;68.20
44477;DHT22;30180;44.788;10.366;2024-02-23T14:43:11;18.80;68.10
44477;DHT22;30180;44.788;10.366;2024-02-23T14:45:39;18.80;68.10
44477;DHT22;30180;44.788;10.366;2024-02-23T14:48:08;18.80;68.00
44477;DHT22;30180;44.788;10.366;2024-02-23T14:50:37;18.80;68.10
44477;DHT22;30180;44.788;10.366;2024-02-23T14:53:05;18.80;68.10
44477;DHT22;30180;44.788;10.366;2024-02-23T14:55:37;18.70;68.10
44477;DHT22;30180;44.788;10.366;2024-02-23T14:58:05;18.80;68.10
44477;DHT22;30180;44.788;10.366;2024-02-23T15:00:34;18.80;68.10
44477;DHT22;30180;44.788;10.366;2024-02-23T15:03:02;18.70;68.00
44477;DHT22;30180;44.788;10.366;2024-02-23T15:05:31;18.70;68.00
44477;DHT22;30180;44.788;10.366;2024-02-23T15:08:00;18.70;68.00
44477;DHT22;30180;44.788;10.366;2024-02-23T15:10:28;18.70;68.00
44477;DHT22;30180;44.788;10.366;2024-02-23T15:12:58;18.70;68.00
44477;DHT22;30180;44.788;10.366;2024-02-23T15:15:27;18.70;68.00
44477;DHT22;30180;44.788;10.366;2024-02-23T15:17:56;18.70;68.00
44477;DHT22;30180;44.788;10.366;2024-02-23T15:20:25;18.70;68.00
44477;DHT22;30180;44.788;10.366;2024-02-23T15:22:53;18.70;68.00
44477;DHT22;30180;44.788;10.366;2024-02-23T15:25:22;18.70;68.00
44477;DHT22;30180;44.788;10.366;2024-02-23T15:27:50;18.60;67.90
44477;DHT22;30180;44.788;10.366;2024-02-23T15:30:21;18.60;68.00